Time;durP1;ratioP1;P1;durP2;ratioP2;P2;SDS_P1;SDS_P2;PMS_P1;PMS_P2;Temp;Humidity;BMP_temperature;BMP_pressure;BME280_temperature;BME280_humidity;BME280_pressure;Samples;Min_cycle;Max_cycle;Signal;HPM_P1;HPM_P2
2021/01/16 00:00:38;;;;;;;27.33;15.15;;;2.00;87.50;;;;;;5038594;28;20106;-56
2021/01/16 00:03:11;;;;;;;28.38;14.95;;;2.00;87.40;;;;;;5030800;28;20057;-56
2021/01/16 00:05:38;;;;;;;24.85;14.98;;;2.00;87.40;;;;;;5030349;28;20501;-56
2021/01/16 00:08:12;;;;;;;26.67;15.02;;;2.00;87.40;;;;;;5036855;28;20842;-56
2021/01/16 00:10:45;;;;;;;25.25;13.65;;;1.90;87.20;;;;;;5013522;28;20077;-55
2021/01/16 00:13:14;;;;;;;;;;;2.00;87.40;;;;;;5029556;28;20038;-56
2021/01/16 00:15:41;;;;;;;24.65;13.13;;;1.90;87.50;;;;;;5029590;28;20023;-56
2021/01/16 00:18:09;;;;;;;28.25;14.57;;;1.90;87.40;;;;;;5038998;28;20091;-56
2021/01/16 00:20:39;;;;;;;27.98;14.27;;;1.90;87.40;;;;;;5027835;28;20054;-57
2021/01/16 00:23:05;;;;;;;25.85;13.93;;;1.90;87.60;;;;;;5017235;28;20489;-55
2021/01/16 00:25:31;;;;;;;25.67;14.07;;;1.90;87.40;;;;;;5040440;28;20037;-55
2021/01/16 00:27:58;;;;;;;26.33;14.70;;;1.90;87.20;;;;;;5039970;28;20508;-56
2021/01/16 00:30:30;;;;;;;24.70;14.48;;;1.90;87.40;;;;;;5032931;28;20045;-54
2021/01/16 00:32:56;;;;;;;30.73;13.48;;;1.90;87.60;;;;;;5031072;28;20072;-54
2021/01/16 00:35:23;;;;;;;25.40;14.25;;;1.90;87.70;;;;;;5038884;28;20034;-53
2021/01/16 00:37:51;;;;;;;27.67;14.88;;;1.80;87.80;;;;;;5026979;28;20132;-53
2021/01/16 00:40:22;;;;;;;26.73;15.13;;;1.80;87.90;;;;;;5035858;28;20041;-54
2021/01/16 00:42:50;;;;;;;27.80;15.43;;;1.90;88.00;;;;;;5028789;28;20113;-54
2021/01/16 00:45:17;;;;;;;26.65;14.60;;;1.90;88.00;;;;;;5035164;28;20102;-56
2021/01/16 00:47:43;;;;;;;27.92;15.68;;;1.90;87.90;;;;;;5036788;28;20050;-55
2021/01/16 00:50:11;;;;;;;24.60;14.98;;;1.90;88.00;;;;;;5033523;28;20096;-53
2021/01/16 00:52:37;;;;;;;24.92;15.13;;;1.90;88.10;;;;;;5013692;28;20061;-54
2021/01/16 00:55:05;;;;;;;25.73;14.27;;;1.90;88.00;;;;;;5028891;28;20163;-56
2021/01/16 00:57:31;;;;;;;29.00;15.90;;;1.90;87.70;;;;;;5030803;28;20037;-54
2021/01/16 00:59:57;;;;;;;28.38;15.45;;;1.90;87.90;;;;;;5027751;28;20156;-55
2021/01/16 01:02:23;;;;;;;29.95;15.60;;;2.40;88.00;;;;;;5030059;28;20038;-56
2021/01/16 01:04:50;;;;;;;28.80;16.38;;;1.90;87.80;;;;;;5028273;28;20050;-54
2021/01/16 01:07:16;;;;;;;29.52;16.02;;;1.90;87.80;;;;;;5036612;28;20048;-57
2021/01/16 01:09:43;;;;;;;29.45;15.90;;;1.90;87.80;;;;;;5029747;28;20045;-54
2021/01/16 01:12:10;;;;;;;27.63;15.13;;;1.80;87.90;;;;;;5035521;28;20036;-54
2021/01/16 01:14:37;;;;;;;26.55;15.32;;;1.80;88.10;;;;;;5046708;28;20450;-54
2021/01/16 01:17:13;;;;;;;26.35;14.77;;;1.80;88.10;;;;;;5027605;28;20037;-54
2021/01/16 01:19:39;;;;;;;26.90;15.23;;;1.80;87.90;;;;;;5023996;28;20045;-56
2021/01/16 01:22:04;;;;;;;29.08;15.57;;;1.80;87.90;;;;;;5031664;28;20099;-56
2021/01/16 01:24:30;;;;;;;26.80;15.25;;;1.80;87.90;;;;;;5029353;28;20099;-54
2021/01/16 01:26:56;;;;;;;24.02;15.07;;;1.80;88.20;;;;;;5031091;28;20482;-53
2021/01/16 01:29:21;;;;;;;27.00;15.73;;;1.80;88.20;;;;;;5030255;28;20120;-54
2021/01/16 01:31:47;;;;;;;27.50;15.40;;;1.80;87.70;;;;;;5030831;28;20045;-55
2021/01/16 01:34:13;;;;;;;28.45;15.80;;;1.80;87.60;;;;;;5030056;28;20405;-56
2021/01/16 01:36:38;;;;;;;26.90;15.15;;;1.80;87.60;;;;;;5030284;28;20045;-56
2021/01/16 01:39:04;;;;;;;24.88;14.55;;;1.80;87.80;;;;;;5032212;28;20048;-54
2021/01/16 01:41:30;;;;;;;26.77;15.20;;;1.80;87.80;;;;;;5034655;28;20052;-54
2021/01/16 01:43:56;;;;;;;26.38;14.63;;;1.80;88.10;;;;;;5032511;28;20065;-56
2021/01/16 01:46:21;;;;;;;26.13;14.68;;;1.80;88.40;;;;;;5034637;28;20045;-55
2021/01/16 01:48:47;;;;;;;25.63;15.38;;;1.80;88.40;;;;;;5033748;28;20052;-55
2021/01/16 01:51:14;;;;;;;26.48;14.20;;;1.80;88.20;;;;;;5034130;28;20041;-53
2021/01/16 01:53:42;;;;;;;27.80;15.20;;;1.80;88.30;;;;;;5028781;28;20045;-54
2021/01/16 01:56:10;;;;;;;26.20;14.27;;;1.80;88.00;;;;;;5033286;28;20037;-56
2021/01/16 01:58:38;;;;;;;25.30;14.57;;;1.80;88.40;;;;;;5033118;28;20126;-54
2021/01/16 02:01:04;;;;;;;23.90;13.93;;;1.80;88.30;;;;;;5033172;28;20049;-55
2021/01/16 02:03:33;;;;;;;28.20;14.63;;;1.80;87.90;;;;;;5033271;28;20410;-51
2021/01/16 02:05:59;;;;;;;24.98;13.68;;;1.80;87.90;;;;;;5032706;28;20152;-55
2021/01/16 02:08:25;;;;;;;24.15;14.35;;;1.80;87.70;;;;;;5032637;28;20541;-53
2021/01/16 02:10:51;;;;;;;23.77;13.73;;;1.80;87.50;;;;;;5033637;28;20045;-54
2021/01/16 02:13:16;;;;;;;27.10;14.40;;;1.80;87.20;;;;;;5031225;28;20061;-53
2021/01/16 02:15:50;;;;;;;22.30;13.55;;;1.80;87.20;;;;;;5032710;28;20037;-55
2021/01/16 02:18:29;;;;;;;27.55;14.25;;;1.80;87.70;;;;;;5032278;28;20037;-56
2021/01/16 02:20:57;;;;;;;24.63;13.85;;;1.70;88.00;;;;;;5033559;28;20099;-56
2021/01/16 02:23:31;;;;;;;26.30;14.05;;;1.80;88.10;;;;;;5032057;28;20096;-54
2021/01/16 02:26:15;;;;;;;22.95;14.07;;;1.80;88.30;;;;;;5032009;28;20037;-53
2021/01/16 02:28:57;;;;;;;26.00;14.52;;;1.80;88.40;;;;;;5030929;28;20051;-55
2021/01/16 02:31:43;;;;;;;26.58;15.40;;;1.80;88.50;;;;;;5030915;28;20046;-52
2021/01/16 02:34:15;;;;;;;23.58;14.15;;;1.80;88.30;;;;;;5031910;28;20041;-55
2021/01/16 02:37:01;;;;;;;23.80;13.68;;;1.80;88.50;;;;;;5031793;28;20072;-55
2021/01/16 02:39:42;;;;;;;25.08;14.05;;;1.70;88.40;;;;;;5032055;28;20046;-52
2021/01/16 02:42:28;;;;;;;24.67;14.50;;;1.70;88.50;;;;;;5031674;28;20508;-56
2021/01/16 02:45:07;;;;;;;23.83;13.63;;;1.70;88.70;;;;;;5026920;28;20524;-54
2021/01/16 02:47:54;;;;;;;26.10;15.38;;;1.70;89.50;;;;;;5032616;28;20076;-53
2021/01/16 02:50:21;;;;;;;24.23;14.65;;;1.70;88.40;;;;;;5030965;28;20064;-54
2021/01/16 02:52:48;;;;;;;25.35;14.35;;;1.70;88.70;;;;;;5031783;28;20128;-53
2021/01/16 02:55:16;;;;;;;26.83;14.88;;;1.70;88.80;;;;;;5031673;28;20033;-54
2021/01/16 02:57:42;;;;;;;25.77;14.30;;;1.70;88.90;;;;;;5041200;28;20049;-52
2021/01/16 03:00:10;;;;;;;23.35;13.88;;;1.70;88.80;;;;;;5046078;28;20092;-54
2021/01/16 03:02:36;;;;;;;26.20;15.15;;;1.70;88.70;;;;;;5029851;28;20042;-55
2021/01/16 03:05:03;;;;;;;25.20;15.13;;;1.70;88.80;;;;;;5031918;28;20528;-54
2021/01/16 03:07:32;;;;;;;27.98;15.25;;;1.70;88.80;;;;;;5032246;28;20050;-56
2021/01/16 03:10:01;;;;;;;24.00;13.90;;;1.70;89.10;;;;;;5029639;28;20128;-54
2021/01/16 03:12:27;;;;;;;24.38;14.05;;;1.70;89.00;;;;;;5034487;28;20052;-55
2021/01/16 03:15:01;;;;;;;24.27;14.40;;;1.70;88.80;;;;;;5051108;28;20056;-54
2021/01/16 03:17:43;;;;;;;24.48;15.25;;;1.70;88.70;;;;;;5031387;28;20390;-54
2021/01/16 03:20:09;;;;;;;24.95;14.95;;;1.60;89.10;;;;;;5030737;28;20486;-55
2021/01/16 03:22:34;;;;;;;25.48;14.60;;;1.70;89.10;;;;;;5031825;28;20045;-54
2021/01/16 03:25:00;;;;;;;27.45;14.85;;;1.60;88.60;;;;;;5029612;28;20047;-54
2021/01/16 03:27:26;;;;;;;25.63;14.90;;;1.60;88.80;;;;;;5031622;28;20490;-54
2021/01/16 03:29:54;;;;;;;26.80;15.02;;;1.60;88.90;;;;;;5030754;28;20128;-54
2021/01/16 03:32:21;;;;;;;26.90;14.82;;;1.60;89.00;;;;;;5030208;28;20056;-54
2021/01/16 03:34:49;;;;;;;24.40;14.50;;;1.60;88.70;;;;;;5031506;28;20044;-54
2021/01/16 03:37:16;;;;;;;26.45;14.45;;;1.60;88.40;;;;;;5033781;28;20033;-55
2021/01/16 03:39:42;;;;;;;29.83;14.75;;;1.60;88.30;;;;;;5032697;28;20127;-56
2021/01/16 03:42:08;;;;;;;25.70;14.77;;;1.60;88.40;;;;;;5042500;28;20132;-55
2021/01/16 03:44:35;;;;;;;26.88;14.85;;;1.60;88.50;;;;;;5029155;28;20079;-53
2021/01/16 03:47:01;;;;;;;26.63;15.82;;;1.60;88.50;;;;;;5038757;28;20112;-55
2021/01/16 03:49:27;;;;;;;24.50;14.60;;;1.60;88.40;;;;;;5042109;28;20045;-57
2021/01/16 03:51:53;;;;;;;24.88;14.00;;;1.60;88.40;;;;;;5043521;28;20052;-54
2021/01/16 03:54:19;;;;;;;28.20;15.07;;;1.70;88.50;;;;;;5030332;28;20042;-54
2021/01/16 03:56:44;;;;;;;27.38;14.20;;;1.60;88.40;;;;;;5039346;28;20464;-52
2021/01/16 03:59:10;;;;;;;26.35;14.48;;;1.60;88.30;;;;;;5041760;28;20036;-55
2021/01/16 04:01:36;;;;;;;24.58;14.05;;;1.60;88.40;;;;;;5031826;28;20049;-53
2021/01/16 04:04:02;;;;;;;24.33;14.27;;;1.60;88.40;;;;;;5040098;28;20357;-56
2021/01/16 04:06:28;;;;;;;28.73;14.82;;;1.70;88.50;;;;;;5033074;28;20060;-56
2021/01/16 04:08:54;;;;;;;25.98;15.07;;;1.60;88.40;;;;;;5037170;28;20768;-55
2021/01/16 04:11:20;;;;;;;26.75;15.35;;;1.50;88.70;;;;;;5021471;28;20042;-54
2021/01/16 04:13:46;;;;;;;28.27;15.15;;;1.50;88.80;;;;;;5032776;28;20059;-54
2021/01/16 04:16:12;;;;;;;25.38;14.55;;;1.60;88.90;;;;;;5043491;28;20037;-54
2021/01/16 04:18:38;;;;;;;25.25;15.35;;;1.60;88.80;;;;;;5024706;28;20037;-54
2021/01/16 04:21:04;;;;;;;26.40;13.98;;;1.60;88.60;;;;;;5030624;28;20482;-52
2021/01/16 04:23:30;;;;;;;26.08;14.93;;;1.50;88.70;;;;;;5030749;28;20164;-54
2021/01/16 04:25:55;;;;;;;26.73;14.95;;;1.60;88.90;;;;;;5029567;28;20049;-54
2021/01/16 04:28:21;;;;;;;25.48;15.45;;;1.60;88.90;;;;;;5030018;28;20068;-54
2021/01/16 04:30:47;;;;;;;28.85;15.15;;;1.50;89.00;;;;;;5033297;28;20120;-56
2021/01/16 04:33:13;;;;;;;25.63;14.55;;;1.50;89.10;;;;;;5033715;28;20052;-58
2021/01/16 04:35:39;;;;;;;26.80;15.07;;;1.60;89.20;;;;;;5044177;28;20513;-53
2021/01/16 04:38:05;;;;;;;25.02;14.13;;;1.60;89.20;;;;;;5016691;28;20385;-53
2021/01/16 04:40:31;;;;;;;27.90;14.95;;;1.60;89.00;;;;;;5023650;28;20054;-51
2021/01/16 04:42:59;;;;;;;30.23;15.90;;;1.50;89.30;;;;;;5030486;28;20041;-54
2021/01/16 04:45:25;;;;;;;25.25;15.30;;;1.50;89.60;;;;;;5028272;28;20041;-52
2021/01/16 04:47:55;;;;;;;28.58;15.05;;;1.60;89.50;;;;;;5030819;28;20417;-54
2021/01/16 04:50:29;;;;;;;24.92;14.85;;;1.60;89.30;;;;;;5030169;28;20268;-53
2021/01/16 04:53:04;;;;;;;25.38;14.93;;;1.60;89.10;;;;;;5030282;28;20517;-56
2021/01/16 04:55:33;;;;;;;25.25;15.27;;;1.50;89.30;;;;;;5029544;28;20041;-52
2021/01/16 04:58:09;;;;;;;26.48;15.45;;;1.50;89.40;;;;;;5030848;28;20048;-53
2021/01/16 05:00:37;;;;;;;28.00;15.32;;;1.50;89.50;;;;;;5027258;28;20133;-53
2021/01/16 05:03:07;;;;;;;26.70;15.07;;;1.50;89.40;;;;;;5025726;28;20493;-54
2021/01/16 05:05:36;;;;;;;27.08;16.00;;;1.50;89.30;;;;;;5031039;28;20155;-53
2021/01/16 05:08:02;;;;;;;25.55;15.23;;;1.50;88.90;;;;;;5029944;28;20383;-55
2021/01/16 05:10:57;;;;;;;26.45;14.82;;;1.60;88.80;;;;;;5029587;28;20350;-54
2021/01/16 05:13:31;;;;;;;24.90;15.20;;;1.60;88.60;;;;;;5035532;28;20043;-56
2021/01/16 05:16:00;;;;;;;26.48;15.27;;;1.50;88.70;;;;;;5026241;28;20453;-53
2021/01/16 05:18:26;;;;;;;27.17;15.38;;;1.40;89.20;;;;;;5030126;28;20037;-53
2021/01/16 05:20:51;;;;;;;23.05;14.57;;;1.40;89.70;;;;;;5028577;28;20077;-54
2021/01/16 05:23:17;;;;;;;29.77;15.32;;;1.40;89.90;;;;;;5033201;28;20469;-53
2021/01/16 05:25:53;;;;;;;25.50;15.38;;;1.50;90.10;;;;;;5030875;28;20052;-54
2021/01/16 05:28:21;;;;;;;25.45;14.60;;;1.40;90.00;;;;;;5042363;28;20059;-54
2021/01/16 05:30:52;;;;;;;25.80;15.02;;;1.40;90.00;;;;;;5040170;28;20037;-54
2021/01/16 05:33:19;;;;;;;28.65;15.90;;;1.30;90.00;;;;;;5026124;28;20038;-53
2021/01/16 05:35:45;;;;;;;27.38;15.77;;;1.30;90.10;;;;;;5042343;28;20038;-51
2021/01/16 05:38:13;;;;;;;25.55;15.00;;;1.40;90.10;;;;;;5020523;28;20090;-51
2021/01/16 05:40:39;;;;;;;27.63;16.17;;;1.40;89.90;;;;;;5033473;28;20037;-51
2021/01/16 05:43:06;;;;;;;29.48;16.15;;;1.40;89.70;;;;;;5033208;28;20478;-53
2021/01/16 05:45:35;;;;;;;27.25;15.30;;;1.30;89.70;;;;;;5033086;28;20044;-53
2021/01/16 05:48:03;;;;;;;28.17;15.57;;;1.30;89.80;;;;;;5036699;28;20410;-55
2021/01/16 05:50:29;;;;;;;29.25;16.80;;;1.30;90.00;;;;;;5030982;28;20080;-54
2021/01/16 05:52:56;;;;;;;27.00;15.40;;;1.30;90.00;;;;;;5029284;28;20061;-51
2021/01/16 05:55:22;;;;;;;27.05;15.77;;;1.30;90.00;;;;;;5031960;28;20034;-51
2021/01/16 05:57:48;;;;;;;26.60;14.52;;;1.30;89.90;;;;;;5033396;28;20033;-51
2021/01/16 06:00:24;;;;;;;31.42;16.00;;;1.40;89.80;;;;;;5033417;28;20091;-52
2021/01/16 06:02:51;;;;;;;27.65;15.65;;;1.50;89.20;;;;;;5033831;28;20505;-54
2021/01/16 06:05:24;;;;;;;27.45;16.02;;;1.40;88.80;;;;;;5017832;28;20582;-54
2021/01/16 06:07:54;;;;;;;26.92;16.15;;;1.40;89.10;;;;;;5010240;28;20038;-54
2021/01/16 06:10:21;;;;;;;25.63;14.93;;;1.40;89.50;;;;;;5020181;28;20125;-54
2021/01/16 06:12:52;;;;;;;29.00;16.02;;;1.30;89.60;;;;;;5032276;28;20091;-55
2021/01/16 06:15:20;;;;;;;27.77;15.88;;;1.30;89.80;;;;;;5042744;28;20040;-52
2021/01/16 06:17:48;;;;;;;26.88;16.27;;;1.30;89.70;;;;;;5037763;28;20052;-54
2021/01/16 06:20:21;;;;;;;24.40;14.80;;;1.30;90.00;;;;;;5028898;28;20045;-52
2021/01/16 06:22:49;;;;;;;;;;;1.30;89.90;;;;;;5027044;28;20084;-51
2021/01/16 06:25:23;;;;;;;26.45;15.23;;;1.40;89.80;;;;;;5031736;28;20333;-54
2021/01/16 06:27:50;;;;;;;27.45;15.32;;;1.30;89.80;;;;;;5029000;28;20037;-52
2021/01/16 06:30:21;;;;;;;28.55;15.63;;;1.30;90.10;;;;;;5024325;28;20045;-53
2021/01/16 06:32:51;;;;;;;25.30;14.85;;;1.30;90.20;;;;;;5025592;28;20045;-53
2021/01/16 06:35:18;;;;;;;25.38;15.02;;;1.40;90.20;;;;;;5032736;28;20136;-57
2021/01/16 06:37:49;;;;;;;25.30;14.45;;;1.40;90.10;;;;;;5038477;28;20120;-55
2021/01/16 06:40:34;;;;;;;28.13;16.13;;;1.50;90.10;;;;;;5037180;28;20577;-52
2021/01/16 06:43:01;;;;;;;30.08;15.20;;;1.30;90.20;;;;;;5030317;28;20041;-50
2021/01/16 06:45:29;;;;;;;26.00;14.98;;;1.30;90.20;;;;;;5032223;28;20065;-51
2021/01/16 06:47:57;;;;;;;29.98;16.13;;;1.50;90.10;;;;;;5033686;28;20064;-51
2021/01/16 06:50:23;;;;;;;27.98;15.35;;;1.30;90.00;;;;;;5034399;28;20080;-54
2021/01/16 06:52:48;;;;;;;26.48;14.45;;;1.40;90.10;;;;;;5033249;28;20067;-53
2021/01/16 06:55:21;;;;;;;25.65;14.35;;;1.40;90.00;;;;;;5031891;28;20116;-54
2021/01/16 06:57:47;;;;;;;26.73;15.00;;;1.40;90.00;;;;;;5030301;28;20099;-51
2021/01/16 07:00:15;;;;;;;29.00;15.38;;;1.40;90.00;;;;;;5030279;28;20061;-53
2021/01/16 07:02:45;;;;;;;26.60;15.25;;;1.40;89.90;;;;;;5031767;28;20049;-52
2021/01/16 07:05:16;;;;;;;28.38;15.40;;;1.40;90.00;;;;;;5033565;28;20034;-54
2021/01/16 07:07:45;;;;;;;26.40;15.13;;;1.40;89.90;;;;;;5029234;28;20042;-54
2021/01/16 07:10:13;;;;;;;29.52;15.88;;;1.30;90.00;;;;;;5030717;28;20077;-56
2021/01/16 07:12:43;;;;;;;24.88;14.85;;;1.30;90.10;;;;;;5033102;28;20044;-55
2021/01/16 07:15:11;;;;;;;26.63;14.98;;;1.30;90.20;;;;;;5033429;28;20057;-53
2021/01/16 07:17:39;;;;;;;26.10;15.20;;;1.30;90.30;;;;;;4999329;28;20076;-54
2021/01/16 07:20:07;;;;;;;26.33;15.20;;;1.30;90.30;;;;;;4981338;28;20120;-54
2021/01/16 07:22:45;;;;;;;28.42;15.30;;;1.30;90.30;;;;;;5011225;28;20056;-51
2021/01/16 07:25:15;;;;;;;25.15;14.68;;;1.30;90.30;;;;;;5015787;28;20069;-52
2021/01/16 07:27:42;;;;;;;27.70;14.98;;;1.30;90.40;;;;;;5009569;28;20512;-54
2021/01/16 07:30:11;;;;;;;27.27;15.10;;;1.40;90.30;;;;;;5032252;28;20103;-54
2021/01/16 07:32:38;;;;;;;30.52;15.70;;;1.40;90.30;;;;;;5032054;28;20104;-52
2021/01/16 07:35:10;;;;;;;25.63;15.18;;;1.40;90.30;;;;;;5022714;28;20045;-55
2021/01/16 07:37:40;;;;;;;28.23;15.90;;;1.40;90.30;;;;;;5006334;28;20506;-54
2021/01/16 07:40:14;;;;;;;26.02;15.18;;;1.40;90.40;;;;;;5003739;28;20533;-53
2021/01/16 07:42:53;;;;;;;27.02;15.50;;;1.40;90.30;;;;;;5017623;28;20037;-55
2021/01/16 07:45:30;;;;;;;28.67;15.70;;;1.40;90.30;;;;;;5045657;28;20049;-55
2021/01/16 07:48:01;;;;;;;28.13;15.75;;;1.40;90.40;;;;;;5007493;28;20045;-53
2021/01/16 07:50:36;;;;;;;26.17;15.10;;;1.50;90.50;;;;;;4997789;28;20140;-53
2021/01/16 07:53:07;;;;;;;29.08;15.60;;;1.50;90.30;;;;;;4997771;28;20131;-53
2021/01/16 07:55:37;;;;;;;26.25;14.82;;;1.50;90.40;;;;;;4977055;28;20509;-53
2021/01/16 07:58:30;;;;;;;28.73;15.35;;;1.50;90.30;;;;;;5039919;28;20057;-52
2021/01/16 08:01:36;;;;;;;24.08;14.68;;;1.50;90.40;;;;;;5014024;28;20064;-55
2021/01/16 08:04:25;;;;;;;27.77;14.57;;;1.50;90.40;;;;;;4982512;28;20099;-54
2021/01/16 08:07:06;;;;;;;25.27;14.98;;;1.50;90.30;;;;;;4996017;28;20049;-54
2021/01/16 08:10:02;;;;;;;26.88;15.20;;;1.60;90.40;;;;;;4998156;28;20053;-52
2021/01/16 08:12:29;;;;;;;29.73;16.13;;;1.60;90.30;;;;;;5016174;28;20497;-54
2021/01/16 08:15:02;;;;;;;27.02;15.45;;;1.60;90.20;;;;;;5001411;28;20045;-57
2021/01/16 08:17:39;;;;;;;28.35;14.48;;;1.60;90.20;;;;;;4963102;28;20447;-53
2021/01/16 08:20:27;;;;;;;30.88;15.93;;;1.50;90.30;;;;;;5028866;28;20045;-53
2021/01/16 08:22:55;;;;;;;27.20;15.45;;;1.60;90.30;;;;;;5030935;28;20034;-53
2021/01/16 08:25:23;;;;;;;28.63;15.95;;;1.60;90.30;;;;;;5030750;28;20041;-51
2021/01/16 08:27:54;;;;;;;28.63;15.80;;;1.60;90.30;;;;;;5031315;28;20084;-54
2021/01/16 08:30:22;;;;;;;29.73;15.75;;;1.60;90.40;;;;;;5030699;28;20049;-53
2021/01/16 08:33:03;;;;;;;30.85;16.33;;;1.60;90.30;;;;;;5030536;28;20075;-56
2021/01/16 08:35:42;;;;;;;30.92;16.30;;;1.60;90.40;;;;;;5033088;28;20140;-57
2021/01/16 08:38:16;;;;;;;29.08;16.67;;;1.60;90.40;;;;;;5021231;28;20187;-57
2021/01/16 08:41:02;;;;;;;26.88;15.75;;;1.60;90.40;;;;;;5037631;28;20181;-58
2021/01/16 08:43:40;;;;;;;26.77;16.40;;;1.60;90.50;;;;;;5039355;28;20493;-58
2021/01/16 08:46:17;;;;;;;29.05;14.75;;;1.60;90.40;;;;;;5047975;28;20045;-57
2021/01/16 08:48:57;;;;;;;26.40;15.40;;;1.60;90.50;;;;;;5040040;28;20414;-57
2021/01/16 08:51:38;;;;;;;27.23;15.40;;;1.60;90.50;;;;;;5039839;28;20036;-55
2021/01/16 08:54:18;;;;;;;30.40;15.82;;;1.70;90.40;;;;;;5033844;28;20040;-57
2021/01/16 08:56:46;;;;;;;26.88;15.60;;;1.70;90.30;;;;;;5035823;28;20064;-57
2021/01/16 08:59:28;;;;;;;29.25;16.42;;;1.70;90.30;;;;;;5034402;28;20053;-57
2021/01/16 09:02:16;;;;;;;26.13;15.13;;;1.70;90.20;;;;;;5030292;28;20136;-57
2021/01/16 09:04:45;;;;;;;25.85;15.45;;;1.70;90.30;;;;;;5034313;28;20421;-57
2021/01/16 09:07:20;;;;;;;28.25;16.33;;;1.80;90.30;;;;;;5016043;28;20034;-57
2021/01/16 09:10:04;;;;;;;26.48;14.88;;;1.80;90.30;;;;;;5045732;28;20124;-57
2021/01/16 09:12:35;;;;;;;30.83;16.17;;;1.90;90.20;;;;;;5015228;28;20053;-57
2021/01/16 09:15:26;;;;;;;30.35;15.98;;;1.90;90.10;;;;;;5015244;28;20053;-57
2021/01/16 09:18:02;;;;;;;27.52;16.35;;;1.90;90.00;;;;;;5022346;28;20037;-57
2021/01/16 09:20:31;;;;;;;29.95;16.27;;;1.90;90.10;;;;;;5047533;28;20033;-56
2021/01/16 09:22:57;;;;;;;27.67;15.80;;;1.90;90.00;;;;;;5033247;28;20103;-57
2021/01/16 09:25:25;;;;;;;28.10;16.15;;;1.90;90.10;;;;;;5031120;28;20041;-57
2021/01/16 09:27:53;;;;;;;30.05;15.98;;;1.90;90.30;;;;;;5033796;28;20421;-56
2021/01/16 09:30:23;;;;;;;28.77;16.33;;;1.90;90.30;;;;;;5027868;28;20066;-57
2021/01/16 09:32:50;;;;;;;29.75;16.05;;;2.00;90.30;;;;;;5031744;28;20045;-57
2021/01/16 09:35:37;;;;;;;30.17;17.13;;;2.00;90.30;;;;;;5033754;28;20045;-57
2021/01/16 09:38:13;;;;;;;27.80;16.25;;;2.00;90.20;;;;;;5015681;28;20394;-56
2021/01/16 09:40:39;;;;;;;30.02;16.08;;;2.10;90.00;;;;;;5033381;28;20049;-56
2021/01/16 09:43:21;;;;;;;26.52;16.02;;;2.10;90.00;;;;;;5032647;28;20440;-57
2021/01/16 09:45:54;;;;;;;27.13;16.42;;;2.10;89.90;;;;;;5027148;28;20049;-57
2021/01/16 09:48:43;;;;;;;27.70;15.32;;;2.10;90.00;;;;;;5020151;28;20037;-56
2021/01/16 09:51:11;;;;;;;26.95;16.60;;;2.10;90.10;;;;;;5033248;28;20064;-57
2021/01/16 09:53:38;;;;;;;25.95;15.98;;;2.20;89.90;;;;;;5032582;28;20047;-58
2021/01/16 09:56:04;;;;;;;29.83;17.23;;;2.20;89.70;;;;;;5031636;28;20416;-56
2021/01/16 09:58:39;;;;;;;27.60;16.20;;;2.20;89.70;;;;;;5025467;28;20209;-58
2021/01/16 10:01:18;;;;;;;28.63;16.98;;;2.20;89.60;;;;;;5045378;28;20067;-57
2021/01/16 10:03:45;;;;;;;24.92;15.20;;;2.20;89.90;;;;;;5046615;28;20130;-58
2021/01/16 10:06:13;;;;;;;27.08;15.60;;;2.20;89.60;;;;;;5033253;28;20073;-58
2021/01/16 10:08:40;;;;;;;29.70;16.73;;;2.20;89.40;;;;;;5032915;28;20109;-58
2021/01/16 10:11:06;;;;;;;27.95;16.05;;;2.20;89.60;;;;;;5032682;28;20033;-57
2021/01/16 10:13:34;;;;;;;26.83;15.88;;;2.30;89.50;;;;;;5031200;28;20136;-57
2021/01/16 10:16:07;;;;;;;26.80;16.23;;;2.30;89.20;;;;;;5041961;28;20041;-57
2021/01/16 10:18:34;;;;;;;28.55;16.80;;;2.40;89.10;;;;;;5035913;28;20099;-57
2021/01/16 10:21:05;;;;;;;26.67;15.88;;;2.40;88.50;;;;;;5032820;28;20201;-57
2021/01/16 10:23:33;;;;;;;28.25;15.75;;;2.40;88.80;;;;;;5031446;28;20044;-56
2021/01/16 10:26:16;;;;;;;27.00;16.55;;;2.40;88.60;;;;;;5023816;28;20041;-57
2021/01/16 10:28:48;;;;;;;28.08;15.45;;;2.50;88.60;;;;;;5028190;28;20045;-57
2021/01/16 10:31:21;;;;;;;26.87;15.73;;;2.50;88.50;;;;;;5032779;28;20041;-57
2021/01/16 10:33:47;;;;;;;25.52;16.15;;;2.50;88.90;;;;;;5032992;28;20437;-56
2021/01/16 10:36:16;;;;;;;26.92;16.25;;;2.50;88.90;;;;;;5036406;28;20034;-56
2021/01/16 10:38:46;;;;;;;27.52;16.33;;;2.50;88.60;;;;;;5032397;28;20045;-57
2021/01/16 10:41:17;;;;;;;24.83;15.00;;;2.50;89.00;;;;;;5032827;28;20095;-57
2021/01/16 10:43:44;;;;;;;27.60;15.20;;;2.60;88.80;;;;;;5045326;28;20115;-57
2021/01/16 10:46:13;;;;;;;27.80;15.18;;;2.50;88.50;;;;;;5046854;28;20041;-56
2021/01/16 10:48:40;;;;;;;24.17;14.25;;;2.60;88.70;;;;;;5026957;28;20414;-57
2021/01/16 10:51:10;;;;;;;25.35;14.90;;;2.70;88.60;;;;;;5030315;28;20049;-57
2021/01/16 10:53:41;;;;;;;24.13;13.25;;;2.70;88.50;;;;;;5042856;28;20420;-57
2021/01/16 10:56:23;;;;;;;24.08;14.18;;;2.80;88.30;;;;;;5047153;28;20065;-56
2021/01/16 10:58:49;;;;;;;;;;;2.70;87.90;;;;;;5024031;28;20045;-56
2021/01/16 11:01:41;;;;;;;21.13;12.52;;;2.80;87.40;;;;;;5031908;28;19975;-57
2021/01/16 11:04:18;;;;;;;23.73;13.40;;;2.70;87.20;;;;;;5021277;28;20045;-57
2021/01/16 11:06:49;;;;;;;23.90;13.27;;;2.80;87.40;;;;;;5031636;28;22032;-56
2021/01/16 11:09:34;;;;;;;21.98;13.23;;;2.80;87.30;;;;;;5031951;28;20041;-56
2021/01/16 11:12:01;;;;;;;25.65;13.73;;;2.80;87.00;;;;;;5034522;28;20036;-57
2021/01/16 11:14:41;;;;;;;22.95;13.18;;;2.80;86.90;;;;;;5041902;28;20077;-57
2021/01/16 11:17:09;;;;;;;21.08;12.43;;;2.80;87.00;;;;;;5025396;28;20449;-57
2021/01/16 11:19:40;;;;;;;21.52;12.98;;;2.90;85.50;;;;;;5031086;28;20501;-57
2021/01/16 11:22:11;;;;;;;22.25;12.60;;;2.90;86.00;;;;;;5031327;28;20045;-57
2021/01/16 11:24:52;;;;;;;21.10;12.23;;;2.90;86.20;;;;;;5031743;28;20068;-57
2021/01/16 11:27:20;;;;;;;21.35;12.00;;;2.90;85.90;;;;;;5045552;28;20060;-57
2021/01/16 11:29:46;;;;;;;19.50;12.05;;;2.90;84.80;;;;;;5027495;28;20388;-57
2021/01/16 11:32:20;;;;;;;21.42;12.50;;;2.90;85.20;;;;;;5029529;28;20459;-57
2021/01/16 11:35:09;;;;;;;19.10;11.30;;;2.90;82.90;;;;;;5041941;28;20046;-58
2021/01/16 11:37:49;;;;;;;21.08;11.90;;;2.90;80.60;;;;;;5017464;28;20045;-57
2021/01/16 11:40:31;;;;;;;20.33;11.55;;;3.00;83.30;;;;;;5018783;28;20053;-57
2021/01/16 11:42:58;;;;;;;20.85;12.20;;;3.00;84.00;;;;;;5011375;28;20034;-57
2021/01/16 11:45:25;;;;;;;21.25;11.35;;;3.10;83.70;;;;;;5031660;28;20042;-57
2021/01/16 11:47:55;;;;;;;23.98;11.50;;;3.10;82.30;;;;;;5031243;28;20037;-56
2021/01/16 11:50:22;;;;;;;22.85;12.45;;;3.10;82.50;;;;;;5031102;28;20041;-56
2021/01/16 11:52:48;;;;;;;20.20;12.00;;;3.10;82.10;;;;;;5034030;28;20033;-57
2021/01/16 11:55:14;;;;;;;21.02;11.57;;;3.10;82.10;;;;;;5039154;28;20056;-57
2021/01/16 11:57:45;;;;;;;21.40;12.50;;;3.20;81.40;;;;;;5017127;28;20108;-57
2021/01/16 12:00:15;;;;;;;24.15;12.55;;;3.10;80.90;;;;;;5024717;28;20072;-57
2021/01/16 12:02:48;;;;;;;21.30;12.25;;;3.10;81.60;;;;;;5030614;28;20081;-57
2021/01/16 12:05:16;;;;;;;22.92;12.35;;;3.20;82.00;;;;;;5044535;28;20033;-57
2021/01/16 12:07:53;;;;;;;20.75;11.68;;;3.20;81.20;;;;;;5030713;28;20533;-55
2021/01/16 12:10:23;;;;;;;21.67;12.32;;;3.20;80.80;;;;;;5030187;28;20041;-57
2021/01/16 12:12:49;;;;;;;22.77;12.05;;;3.20;79.50;;;;;;5030072;28;20042;-57
2021/01/16 12:15:22;;;;;;;22.65;12.85;;;3.20;80.10;;;;;;5032530;28;20382;-57
2021/01/16 12:17:50;;;;;;;22.38;12.15;;;3.20;79.10;;;;;;5040885;28;20486;-57
2021/01/16 12:20:17;;;;;;;25.30;12.95;;;3.20;79.70;;;;;;5046234;28;20494;-57
2021/01/16 12:22:44;;;;;;;23.02;12.85;;;3.20;79.70;;;;;;5049439;28;20412;-57
2021/01/16 12:25:13;;;;;;;22.70;12.48;;;3.20;80.40;;;;;;5013440;28;20128;-58
2021/01/16 12:27:53;;;;;;;24.80;12.90;;;3.20;80.70;;;;;;5017962;28;20038;-58
2021/01/16 12:30:21;;;;;;;23.73;13.18;;;3.20;80.50;;;;;;5030224;28;20053;-57
2021/01/16 12:32:47;;;;;;;21.70;12.50;;;3.20;80.50;;;;;;5019976;28;20076;-57
2021/01/16 12:35:14;;;;;;;20.85;11.88;;;3.20;80.40;;;;;;5018065;28;20092;-57
2021/01/16 12:37:41;;;;;;;24.20;13.00;;;3.20;78.80;;;;;;5024517;28;20048;-56
2021/01/16 12:40:21;;;;;;;20.05;11.85;;;3.20;79.80;;;;;;5021863;28;20107;-57
2021/01/16 12:42:48;;;;;;;20.80;12.32;;;3.20;79.10;;;;;;5031094;28;20038;-57
2021/01/16 12:45:21;;;;;;;22.33;12.00;;;3.20;79.70;;;;;;5031945;28;20045;-57
2021/01/16 12:47:51;;;;;;;20.33;11.75;;;3.20;79.60;;;;;;5029714;28;20033;-57
2021/01/16 12:50:17;;;;;;;21.65;11.80;;;3.20;79.30;;;;;;5030375;28;20080;-57
2021/01/16 12:52:48;;;;;;;20.73;11.88;;;3.30;78.70;;;;;;5028046;28;20045;-57
2021/01/16 12:55:16;;;;;;;20.58;11.35;;;3.30;77.90;;;;;;5027152;28;20049;-57